Terminal Aerodrome Forecast
Issued by NWS Lake Charles, LA

Home | Current Version | Previous Version | Text Only | Print | Product List | Glossary On
Versions: 1 2 3 4 5 6 7 8 9 10 11 12 13 14 15 16 17 18 19 20 21
000
FTUS44 KLCH 191120
TAFARA
TAF
KARA 191120Z 1912/2012 00000KT 3SM BR SCT003
      TEMPO 1912/1914 1/2SM FG BKN003
     FM191400 20006KT P6SM SCT015
     FM191800 19009KT P6SM VCSH SCT040 BKN120
     FM200200 VRB03KT P6SM BKN250=

USA.gov is the U.S. government's official web portal to all federal, state and local government web resources and services.